Kagoshima Airport
RJFK : rendu visible

Aérodrome :











RETROUVEZ-NOUS SUR...

 
LOGIN :

S'inscrire | Disclaimer

   EN    FR    IT 

 









Légende :    VFR   VFR Marginal   IFR   IFR Intensif   IFR Très Intensif
Visi : 
Plafond : 
>= 8 km
>= 3000ft
5 à 8 km
1000 à 3000 ft
1500m à 5 km
500 à 1000 ft
800 à 1500m
200 à 500 ft
< 800m
< 200 ft
Symboles :   Orages  Brouillard  Fortes neiges  Fortes précipitations  Vent > 20 kt







- Altitude de l'aérodrome : 906 ft
- Code IATA : KOJ


RJFK - Kagoshima

DERNIER METAR :
  • 190200Z 10009KT 9999 VCFG FEW005 SCT020 BKN045 20/19 Q1006

METARs EXPIRÉS :
  • 190100Z 08006KT 040V110 9999 -SHRA BCFG FEW002 SCT012 BKN025 19/18 Q1006 RMK 1ST002 3CU012 5CU025 A2971 FG N-NE
  • 190045Z 02004KT 340V080 7000 -SHRA BCFG FEW002 SCT008 BKN012 18/18 Q1006 RMK 1ST002 3ST008 5CU012 A2972 FG N-NE
  • 190037Z 04005KT 340V100 4000 -SHRA BCFG BR FEW001 SCT002 BKN008 18/18 Q1006 RMK 1ST001 3ST002 5ST008 A2972 FG NW-NE
  • 190000Z 09008KT 6000 -SHRA BCFG FEW005 SCT030 BKN090 19/18 Q1006 RMK 1ST005 4CU030 7AC090 A2972 FG NW-NE
  • 182322Z 10006KT 060V120 4000 -SHRA BCFG BR FEW005 BKN030 BKN050 18/18 Q1006 RMK 1ST005 5CU030 6SC050 A2973 FG NW-SE

TAF TAF RJFK
Valide du 19 à 00h jusqu'au 20 à 06h UTC


182312Z 1900/2006 09008KT 9999 FEW005 SCT010 BKN025
TEMPO 1900/1901 3000 SHRA BR
BECMG 1910/1912 35005KT
BECMG 1921/2000 19006KT
FIR RJJJ / Asie



MET'MAP, la Météo Aéronautique d'un coup d'oeil ! - Copyright ORBIFLY Décembre 2007 - Disclaimer

ORBIFLY MET'MAP TEAM :

Programmation & Développement : Alexandra Zaïnal
Conception & Développement : Baudouin d'Aumeries
Co-Programmation & Développement : Marc-Olivier Méhu
Soutien technique & logistique : Manuel Goepfert

Contact : metmap@orbifly.com




SOURCES & CREDITS :

   NOAA       Earth
Advisory